ADDS METAR Data INFO
IDs: Format: Raw Decoded Include TAF

Data at: 1156 UTC 25 Jun 2018

K66R 251135Z AUTO 15006KT 7SM SCT032 SCT039 BKN050 25/24 A2995 RMK AO2 T02510240
K66R 251115Z AUTO 14007KT 10SM SCT030 SCT037 BKN050 25/24 A2995 RMK AO2 T02520240
K66R 251055Z AUTO 15005KT 10SM SCT026 BKN032 OVC050 25/24 A2996 RMK AO2 T02520240
K66R 251035Z AUTO 14005KT 10SM SCT032 BKN039 25/24 A2995 RMK AO2 T02510240
K66R 251015Z AUTO 14005KT 10SM SCT030 SCT035 BKN041 25/24 A2995 RMK AO2 T02500239
K66R 250955Z AUTO 14004KT 10SM OVC034 25/24 A2994 RMK AO2 T02500240
K66R 250935Z AUTO 14005KT 10SM SCT019 SCT030 BKN035 25/24 A2993 RMK AO2 T02510240
K66R 250915Z AUTO 15006KT 10SM SCT014 BKN018 OVC047 25/24 A2994 RMK AO2 T02510240
K66R 250855Z AUTO 15003KT 10SM SCT016 BKN022 OVC045 25/24 A2994 RMK AO2 T02510240
K66R 250835Z AUTO 16003KT 10SM BKN016 BKN024 OVC031 25/24 A2994 RMK AO2 T02500240
K66R 250815Z AUTO 16003KT 10SM BKN016 OVC025 25/24 A2994 RMK AO2 T02470237
K66R 250755Z AUTO 15004KT 10SM BKN016 BKN029 25/24 A2994 RMK AO2 T02460236
K66R 250735Z AUTO 15003KT 10SM SCT016 25/24 A2995 RMK AO2 T02450235
K66R 250715Z AUTO 14004KT 10SM CLR 25/24 A2995 RMK AO2 T02470235
K66R 250655Z AUTO 14003KT 10SM CLR 25/24 A2996 RMK AO2 T02480236
K66R 250635Z AUTO 14003KT 10SM CLR 25/24 A2996 RMK AO2 T02510236
K66R 250615Z AUTO 15005KT 10SM SCT024 25/24 A2995 RMK AO2 T02520236
K66R 250555Z AUTO 15005KT 10SM SCT024 26/24 A2995 RMK AO2 T02550237 10310 20254 403310251
K66R 250535Z AUTO 14005KT 10SM SCT019 SCT028 26/24 A2996 RMK AO2 T02550236
K66R 250515Z AUTO 16005KT 10SM OVC019 26/24 A2995 RMK AO2 T02580236
K66R 250455Z AUTO 15007KT 10SM SCT021 26/24 A2994 RMK AO2 T02590236
K66R 250435Z AUTO 15010KT 10SM CLR 26/24 A2992 RMK AO2 T02580236
K66R 250415Z AUTO 15009G14KT 10SM CLR 26/24 A2991 RMK AO2 T02600236
K66R 250355Z AUTO 15006KT 10SM CLR 26/24 A2992 RMK AO2 T02600236
K66R 250335Z AUTO 14005KT 10SM CLR 26/24 A2992 RMK AO2 T02630236
K66R 250315Z AUTO 14008KT 10SM CLR 27/24 A2992 RMK AO2 T02650237
K66R 250255Z AUTO 14007KT 10SM CLR 27/24 A2991 RMK AO2 T02680237
K66R 250235Z AUTO 14007G14KT 10SM SCT020 SCT028 SCT037 27/24 A2991 RMK AO2 T02740238
K66R 250215Z AUTO 14007KT 10SM SCT026 BKN037 BKN042 28/24 A2990 RMK AO2 T02780237
K66R 250155Z AUTO 14005KT 10SM SCT028 SCT036 28/23 A2989 RMK AO2 T02800230
K66R 250135Z AUTO 15006KT 10SM CLR 28/23 A2989 RMK AO2 T02810227
K66R 250115Z AUTO 15005KT 10SM CLR 29/23 A2988 RMK AO2 T02850225
K66R 250055Z AUTO 15009KT 10SM CLR 29/23 A2988 RMK AO2 T02920228
K66R 250035Z AUTO 14008G16KT 10SM SCT034 SCT048 29/22 A2988 RMK AO2 T02910224
K66R 250015Z AUTO 14011G18KT 10SM BKN034 BKN040 31/22 A2987 RMK AO2 T03060222
K66R 242355Z AUTO 15008KT 10SM SCT036 31/22 A2988 RMK AO2 T03080219 10331 20308
K66R 242335Z AUTO 16008G16KT 10SM CLR 31/21 A2987 RMK AO2 T03130213
K66R 242315Z AUTO 16009KT 10SM SCT035 31/22 A2987 RMK AO2 T03130218
K66R 242255Z AUTO 16009G16KT 10SM SCT035 SCT041 31/22 A2987 RMK AO2 T03120224
K66R 242235Z AUTO 17011G19KT 10SM CLR 32/23 A2987 RMK AO2 T03160225
K66R 242215Z AUTO 16010G16KT 10SM CLR 32/23 A2988 RMK AO2 T03180231
K66R 242155Z AUTO 17012G16KT 10SM CLR 32/22 A2989 RMK AO2 T03200224
K66R 242135Z AUTO 16012G19KT 10SM SCT029 SCT038 SCT049 32/23 A2990 RMK AO2 T03170233
K66R 242115Z AUTO 17011G19KT 10SM SCT038 SCT060 SCT070 32/23 A2990 RMK AO2 T03190234
K66R 242055Z AUTO 16012G18KT 10SM CLR 33/22 A2990 RMK AO2 T03260219
K66R 242035Z AUTO 17014KT 10SM CLR 33/22 A2990 RMK AO2 T03290217
K66R 242015Z AUTO 18013G17KT 10SM SCT039 SCT050 SCT060 33/23 A2990 RMK AO2 T03290227
K66R 241955Z AUTO 16013G16KT 10SM SCT039 33/22 A2991 RMK AO2 T03260224
K66R 241935Z AUTO 17011G17KT 10SM SCT039 SCT045 SCT050 33/21 A2991 RMK AO2 T03270214
K66R 241910Z AUTO 17013G20KT 10SM SCT040 SCT047 SCT050 33/22 A2991 RMK AO2 T03250222
K66R 241855Z AUTO 17014G17KT 10SM SCT038 SCT047 SCT050 32/22 A2991 RMK AO2 T03210220
K66R 241835Z AUTO 16010KT 10SM SCT036 SCT048 33/23 A2992 RMK AO2 T03260230
K66R 241815Z AUTO 16011G17KT 10SM SCT034 SCT050 32/23 A2991 RMK AO2 T03230230
K66R 241755Z AUTO 18011G17KT 10SM BKN036 BKN050 32/23 A2992 RMK AO2 T03190232 10325 20251
K66R 241735Z AUTO 17010G17KT 10SM SCT036 SCT042 32/23 A2992 RMK AO2 T03220226
K66R 241715Z AUTO 17010G19KT 10SM SCT036 SCT043 32/23 A2992 RMK AO2 T03170225
K66R 241655Z AUTO 16011G18KT 10SM BKN034 BKN043 31/23 A2992 RMK AO2 T03140227
K66R 241635Z AUTO 17011G14KT 10SM SCT030 BKN036 SCT043 31/23 A2991 RMK AO2 T03100229
K66R 241615Z AUTO 17011G16KT 10SM SCT026 SCT030 31/23 A2990 RMK AO2 T03050232
K66R 241555Z AUTO 18009G15KT 10SM BKN024 BKN030 31/24 A2989 RMK AO2 T03060244
K66R 241535Z AUTO 17009G18KT 140V200 10SM BKN024 30/24 A2989 RMK AO2 T02980240
K66R 241515Z AUTO 18011G17KT 10SM SCT021 SCT033 30/24 A2989 RMK AO2 T03000243
K66R 241455Z AUTO 17012G19KT 10SM BKN017 BKN024 BKN032 29/24 A2989 RMK AO2 T02900241
K66R 241435Z AUTO 18006KT 10SM BKN017 BKN022 29/25 A2989 RMK AO2 T02860248
K66R 241415Z AUTO 18011G18KT 10SM BKN012 BKN020 28/25 A2988 RMK AO2 LTG DSNT S T02790248
K66R 241355Z AUTO 19009G14KT 10SM BKN010 28/25 A2989 RMK AO2 T02770251
K66R 241335Z AUTO 17009KT 10SM BKN010 BKN015 27/25 A2988 RMK AO2 T02710249
K66R 241315Z AUTO 17008KT 10SM SCT010 SCT018 SCT028 26/25 A2988 RMK AO2 T02640248
K66R 241255Z AUTO 16004KT 7SM SCT019 BKN028 BKN033 26/25 A2988 RMK AO2 T02560246
K66R 241235Z AUTO 16003KT 7SM SCT021 BKN028 BKN035 25/24 A2988 RMK AO2 LTG DSNT S T02520242
K66R 241215Z AUTO 00000KT 7SM SCT024 SCT031 25/24 A2989 RMK AO2 T02510241
K66R 241155Z AUTO 00000KT 7SM SCT030 25/24 A2989 RMK AO2 T02510241 10261 20251
K66R 241135Z AUTO 15005KT 7SM SCT015 SCT028 BKN034 25/24 A2988 RMK AO2 T02520243
K66R 241115Z AUTO 16004KT 10SM SCT014 BKN024 BKN030 26/25 A2988 RMK AO2 T02550245
K66R 241055Z AUTO 16006KT 10SM BKN013 BKN023 OVC037 26/25 A2989 RMK AO2 T02550245
K66R 241035Z AUTO 15003KT 10SM BKN013 BKN022 BKN030 26/25 A2989 RMK AO2 T02550246
K66R 241015Z AUTO 16004KT 10SM SCT010 BKN015 26/25 A2988 RMK AO2 T02570247
K66R 240955Z AUTO 15003KT 10SM SCT010 OVC015 26/25 A2989 RMK AO2 T02600248
K66R 240935Z AUTO 19003KT 10SM OVC011 26/25 A2990 RMK AO2 T02600249
K66R 240915Z AUTO 00000KT 10SM BKN014 OVC019 26/25 A2989 RMK AO2 T02600250
K66R 240855Z AUTO 17003KT 10SM BKN019 BKN030 BKN037 26/25 A2989 RMK AO2 T02590248
K66R 240835Z AUTO 16006KT 10SM SCT014 SCT019 BKN031 26/25 A2989 RMK AO2 T02600247
K66R 240815Z AUTO 16005KT 10SM BKN012 BKN017 OVC022 26/25 A2989 RMK AO2 T02600248
K66R 240755Z AUTO 17006KT 10SM OVC012 26/25 A2989 RMK AO2 T02600250
K66R 240735Z AUTO 17005KT 10SM OVC012 26/25 A2990 RMK AO2 T02580249
K66R 240715Z AUTO 16005KT 10SM BKN014 BKN027 BKN033 26/25 A2989 RMK AO2 T02590249
K66R 240655Z AUTO 17006KT 10SM SCT009 BKN014 OVC032 26/25 A2990 RMK AO2 T02600250
K66R 240635Z AUTO 16005KT 10SM BKN012 BKN018 OVC025 26/25 A2990 RMK AO2 T02600250
K66R 240615Z AUTO 17005KT 10SM BKN009 OVC017 26/25 A2990 RMK AO2 T02600250
K66R 240555Z AUTO 17006KT 10SM SCT009 BKN014 OVC029 26/25 A2990 RMK AO2 T02600250 10307 20259 403310245
K66R 240535Z AUTO 16006KT 10SM BKN009 BKN014 OVC027 26/25 A2988 RMK AO2 LTG DSNT NW T02590249
K66R 240515Z AUTO 16006KT 10SM BKN009 OVC025 26/25 A2988 RMK AO2 T02600248
K66R 240455Z AUTO 15006KT 10SM BKN011 BKN016 OVC022 26/25 A2987 RMK AO2 T02600248
K66R 240435Z AUTO 15007KT 10SM SCT011 OVC020 26/25 A2986 RMK AO2 T02600247
K66R 240415Z AUTO 16007KT 10SM BKN011 BKN017 BKN024 26/25 A2986 RMK AO2 T02610247
K66R 240355Z AUTO 15006KT 10SM BKN013 BKN017 BKN026 26/25 A2985 RMK AO2 T02630248
K66R 240335Z AUTO 15006KT 10SM BKN013 BKN018 BKN026 27/25 A2985 RMK AO2 T02650247
K66R 240315Z AUTO 16008KT 10SM SCT013 SCT021 SCT031 27/25 A2984 RMK AO2 T02650247
K66R 240255Z AUTO 16007KT 10SM SCT013 27/25 A2983 RMK AO2 T02680246
K66R 240235Z AUTO 15008KT 10SM CLR 27/24 A2982 RMK AO2 T02700244
K66R 240215Z AUTO 15008G14KT 10SM CLR 27/24 A2982 RMK AO2 T02730243
K66R 240155Z AUTO 16006KT 10SM CLR 28/24 A2981 RMK AO2 T02760242
K66R 240135Z AUTO 16010G17KT 10SM CLR 28/24 A2981 RMK AO2 T02800240
K66R 240115Z AUTO 16008G16KT 10SM CLR 29/24 A2981 RMK AO2 T02850238
K66R 240055Z AUTO 17009G14KT 10SM CLR 29/24 A2981 RMK AO2 T02910239
K66R 240035Z AUTO 17010G15KT 10SM CLR 30/23 A2981 RMK AO2 T02980233
K66R 240015Z AUTO 16011G15KT 10SM CLR 30/23 A2981 RMK AO2 T03030229